Time;durP1;ratioP1;P1;durP2;ratioP2;P2;SDS_P1;SDS_P2;PMS_P1;PMS_P2;Temp;Humidity;BMP_temperature;BMP_pressure;BME280_temperature;BME280_humidity;BME280_pressure;Samples;Min_cycle;Max_cycle;Signal;HPM_P1;HPM_P2
2022/10/01 00:00:19;;;;;;;2.63;2.08;;;15.80;97.30;;;;;;5033636;28;20025;-63
2022/10/01 00:02:45;;;;;;;3.08;1.67;;;15.80;97.30;;;;;;5033236;28;20052;-63
2022/10/01 00:05:11;;;;;;;3.55;1.58;;;15.80;97.30;;;;;;5033291;28;20069;-63
2022/10/01 00:07:41;;;;;;;2.47;1.10;;;15.80;97.30;;;;;;5031623;28;20053;-63
2022/10/01 00:10:09;;;;;;;2.53;1.30;;;15.80;97.30;;;;;;5033443;28;20041;-63
2022/10/01 00:12:35;;;;;;;4.00;1.73;;;15.80;97.40;;;;;;5033688;28;20475;-63
2022/10/01 00:15:02;;;;;;;2.80;1.25;;;15.80;97.40;;;;;;5033338;28;20057;-63
2022/10/01 00:17:28;;;;;;;2.60;1.80;;;15.80;97.40;;;;;;5032970;28;20046;-63
2022/10/01 00:19:53;;;;;;;1.50;1.33;;;15.80;97.70;;;;;;5033207;28;20371;-63
2022/10/01 00:22:19;;;;;;;3.42;1.40;;;15.80;97.50;;;;;;5032941;28;20083;-63
2022/10/01 00:24:46;;;;;;;3.83;1.88;;;15.70;97.60;;;;;;5033047;28;20041;-63
2022/10/01 00:27:12;;;;;;;4.57;2.28;;;15.70;97.70;;;;;;5032600;28;20021;-63
2022/10/01 00:29:39;;;;;;;2.85;1.15;;;15.70;97.90;;;;;;5032594;28;20387;-63
2022/10/01 00:32:04;;;;;;;1.20;1.10;;;15.60;97.80;;;;;;5032964;28;20018;-63
2022/10/01 00:34:30;;;;;;;1.77;1.23;;;15.60;97.80;;;;;;5032939;28;20102;-64
2022/10/01 00:36:55;;;;;;;3.40;1.23;;;15.70;98.00;;;;;;5032569;28;20034;-63
2022/10/01 00:39:22;;;;;;;4.13;1.70;;;15.60;97.90;;;;;;5032800;28;20025;-63
2022/10/01 00:41:49;;;;;;;2.13;1.55;;;15.60;97.90;;;;;;5032406;28;20045;-63
2022/10/01 00:44:35;;;;;;;1.98;1.13;;;15.60;98.10;;;;;;5047934;28;20036;-62
2022/10/01 00:47:22;;;;;;;2.30;1.02;;;15.60;97.90;;;;;;5044612;28;20022;-62
2022/10/01 00:49:49;;;;;;;2.50;1.08;;;15.60;98.00;;;;;;5013283;28;20387;-63
2022/10/01 00:52:20;;;;;;;4.00;1.10;;;15.60;98.10;;;;;;5041966;28;20040;-62
2022/10/01 00:54:52;;;;;;;2.42;0.80;;;15.60;98.10;;;;;;5041916;28;20036;-62
2022/10/01 00:57:23;;;;;;;1.67;0.82;;;15.60;98.00;;;;;;5043997;28;20362;-62
2022/10/01 00:59:50;;;;;;;2.47;1.10;;;15.60;98.10;;;;;;5032759;28;20021;-62
2022/10/01 01:02:16;;;;;;;2.45;0.90;;;15.50;98.30;;;;;;5032099;28;20025;-62
2022/10/01 01:04:41;;;;;;;2.30;1.00;;;15.50;98.30;;;;;;5032789;28;20042;-63
2022/10/01 01:07:08;;;;;;;2.60;0.90;;;15.50;98.30;;;;;;5032599;28;20033;-63
2022/10/01 01:09:37;;;;;;;2.58;0.80;;;15.50;98.30;;;;;;5032604;28;20032;-63
2022/10/01 01:12:39;;;;;;;5.13;1.05;;;15.60;98.30;;;;;;5031673;28;20049;-62
2022/10/01 01:15:29;;;;;;;4.15;0.85;;;15.50;98.20;;;;;;5032672;28;20116;-62
2022/10/01 01:18:09;;;;;;;2.13;0.80;;;15.50;98.30;;;;;;5032418;28;20030;-63
2022/10/01 01:20:59;;;;;;;3.22;0.77;;;15.50;98.40;;;;;;5032339;28;20382;-62
2022/10/01 01:23:30;;;;;;;3.05;0.50;;;15.50;98.30;;;;;;5032336;28;20040;-63
2022/10/01 01:26:01;;;;;;;2.80;1.07;;;15.50;98.40;;;;;;5032910;28;20037;-62
2022/10/01 01:28:37;;;;;;;1.27;0.77;;;15.40;98.60;;;;;;5032483;28;20485;-62
2022/10/01 01:31:09;;;;;;;3.92;1.05;;;15.40;98.50;;;;;;5032520;28;20083;-62
2022/10/01 01:33:37;;;;;;;1.65;0.68;;;15.50;98.50;;;;;;5032352;28;20104;-62
2022/10/01 01:36:08;;;;;;;1.38;0.55;;;15.40;98.50;;;;;;5032244;28;20493;-62
2022/10/01 01:38:43;;;;;;;1.63;0.93;;;15.40;98.60;;;;;;5034009;28;20025;-62
2022/10/01 01:41:11;;;;;;;2.60;0.70;;;15.40;98.60;;;;;;5036621;28;20013;-62
2022/10/01 01:43:40;;;;;;;1.83;1.00;;;15.40;98.60;;;;;;5035998;28;20029;-62
2022/10/01 01:46:07;;;;;;;1.95;0.57;;;15.40;98.60;;;;;;5036009;28;20033;-63
2022/10/01 01:48:36;;;;;;;1.60;0.80;;;15.40;98.70;;;;;;5035646;28;20079;-62
2022/10/01 01:51:07;;;;;;;0.70;0.40;;;15.40;98.70;;;;;;5035909;28;20581;-62
2022/10/01 01:53:34;;;;;;;2.03;0.95;;;15.40;98.60;;;;;;5035699;28;20028;-62
2022/10/01 01:56:01;;;;;;;1.20;0.60;;;15.40;98.70;;;;;;5035956;28;20128;-62
2022/10/01 01:58:27;;;;;;;1.10;0.68;;;15.40;98.80;;;;;;5035714;28;20036;-62
2022/10/01 02:00:53;;;;;;;1.20;0.73;;;15.40;98.80;;;;;;5035782;28;20467;-62
2022/10/01 02:03:22;;;;;;;1.27;0.60;;;15.30;98.80;;;;;;5035489;28;20036;-62
2022/10/01 02:05:53;;;;;;;1.20;0.60;;;15.40;98.80;;;;;;5036040;28;20046;-62
2022/10/01 02:08:39;;;;;;;1.52;0.80;;;15.30;98.80;;;;;;5035634;28;20368;-62
2022/10/01 02:11:20;;;;;;;2.67;0.80;;;15.30;98.90;;;;;;5035604;28;20525;-62
2022/10/01 02:14:02;;;;;;;0.88;0.38;;;15.30;98.90;;;;;;5035589;28;20026;-63
2022/10/01 02:16:34;;;;;;;1.35;0.70;;;15.30;99.00;;;;;;5035438;28;20033;-63
2022/10/01 02:19:20;;;;;;;2.03;0.70;;;15.30;99.10;;;;;;5035087;28;20104;-63
2022/10/01 02:21:51;;;;;;;1.45;0.70;;;15.30;99.10;;;;;;5035261;28;20037;-63
2022/10/01 02:24:48;;;;;;;2.15;0.65;;;15.30;99.20;;;;;;5035170;28;20026;-62
2022/10/01 02:27:26;;;;;;;0.93;0.60;;;15.30;99.10;;;;;;5035232;28;20033;-62
2022/10/01 02:29:54;;;;;;;0.82;0.30;;;15.30;99.20;;;;;;5035228;28;20553;-63
2022/10/01 02:32:21;;;;;;;1.40;0.60;;;15.30;99.20;;;;;;5033675;28;20478;-63
2022/10/01 02:34:48;;;;;;;1.25;0.50;;;15.30;99.30;;;;;;5034993;28;20435;-63
2022/10/01 02:37:18;;;;;;;0.70;0.40;;;15.30;99.30;;;;;;5034982;28;20025;-62
2022/10/01 02:39:46;;;;;;;0.77;0.50;;;15.30;99.40;;;;;;5034856;28;20022;-63
2022/10/01 02:42:13;;;;;;;1.52;0.75;;;15.30;99.30;;;;;;5035109;28;20155;-62
2022/10/01 02:44:43;;;;;;;0.60;0.40;;;15.20;99.40;;;;;;5034768;28;20060;-63
2022/10/01 02:47:42;;;;;;;0.47;0.30;;;15.30;99.40;;;;;;5034782;28;20018;-62
2022/10/01 02:50:08;;;;;;;0.85;0.45;;;15.30;99.10;;;;;;5030080;28;20471;-62
2022/10/01 02:52:46;;;;;;;0.70;0.40;;;15.30;99.40;;;;;;5034863;28;20027;-62
2022/10/01 02:55:16;;;;;;;0.65;0.40;;;15.30;99.50;;;;;;5034558;28;20532;-62
2022/10/01 02:57:42;;;;;;;1.40;0.30;;;15.20;99.40;;;;;;5034589;28;20033;-62
2022/10/01 03:00:11;;;;;;;0.82;0.47;;;15.30;99.50;;;;;;5034660;28;20363;-62
2022/10/01 03:02:36;;;;;;;0.80;0.30;;;15.30;99.40;;;;;;5034221;28;20029;-62
2022/10/01 03:05:03;;;;;;;1.60;0.20;;;15.30;99.50;;;;;;5034528;28;20029;-62
2022/10/01 03:07:33;;;;;;;1.02;0.40;;;15.30;99.50;;;;;;5034339;28;20374;-62
2022/10/01 03:09:58;;;;;;;1.15;0.60;;;15.30;99.50;;;;;;5034616;28;20075;-62
2022/10/01 03:12:24;;;;;;;1.02;0.40;;;15.30;99.60;;;;;;5034746;28;20399;-62
2022/10/01 03:14:50;;;;;;;1.23;0.55;;;15.30;99.60;;;;;;5034602;28;20120;-62
2022/10/01 03:17:16;;;;;;;0.80;0.30;;;15.30;99.60;;;;;;5034146;28;20018;-62
2022/10/01 03:19:42;;;;;;;0.70;0.40;;;15.30;99.60;;;;;;5034239;28;20474;-62
2022/10/01 03:22:10;;;;;;;0.43;0.20;;;15.20;99.60;;;;;;5034225;28;20051;-62
2022/10/01 03:24:36;;;;;;;0.60;0.30;;;15.30;99.60;;;;;;5034171;28;20025;-63
2022/10/01 03:27:01;;;;;;;0.98;0.30;;;15.30;99.60;;;;;;5034316;28;20086;-62
2022/10/01 03:29:27;;;;;;;0.95;0.30;;;15.30;99.60;;;;;;5032987;28;20382;-63
2022/10/01 03:31:53;;;;;;;1.38;0.50;;;15.30;99.60;;;;;;5033552;28;20073;-62
2022/10/01 03:34:19;;;;;;;3.97;0.40;;;15.20;99.70;;;;;;5034327;28;20112;-64
2022/10/01 03:36:45;;;;;;;0.68;0.32;;;15.20;99.70;;;;;;5033725;28;20061;-62
2022/10/01 03:39:10;;;;;;;0.93;0.47;;;15.30;99.80;;;;;;5033981;28;20037;-64
2022/10/01 03:41:36;;;;;;;1.17;0.47;;;15.30;99.90;;;;;;5033930;28;20028;-62
2022/10/01 03:44:02;;;;;;;2.78;0.60;;;15.20;99.90;;;;;;5033741;28;20032;-64
2022/10/01 03:46:28;;;;;;;1.67;0.55;;;15.30;99.90;;;;;;5031354;28;20030;-64
2022/10/01 03:48:54;;;;;;;1.17;0.40;;;15.20;99.90;;;;;;5014547;28;20360;-63
2022/10/01 03:51:20;;;;;;;1.30;0.70;;;15.20;99.90;;;;;;5012484;28;20018;-64
2022/10/01 03:53:46;;;;;;;0.82;0.40;;;15.20;99.90;;;;;;5013243;28;20105;-63
2022/10/01 03:56:13;;;;;;;1.55;0.30;;;15.20;99.90;;;;;;5013683;28;20097;-63
2022/10/01 03:58:39;;;;;;;0.85;0.20;;;15.20;99.90;;;;;;5013813;28;20022;-64
2022/10/01 04:01:04;;;;;;;0.95;0.70;;;15.30;99.90;;;;;;5012765;28;20109;-63
2022/10/01 04:03:30;;;;;;;0.80;0.22;;;15.30;99.90;;;;;;5013662;28;20030;-64
2022/10/01 04:05:56;;;;;;;0.70;0.30;;;15.20;99.90;;;;;;5013688;28;20069;-64
2022/10/01 04:08:22;;;;;;;0.55;0.30;;;15.30;99.90;;;;;;5013725;28;20030;-63
2022/10/01 04:10:48;;;;;;;1.65;0.52;;;15.30;99.90;;;;;;5013480;28;20036;-64
2022/10/01 04:13:14;;;;;;;1.08;0.35;;;15.30;99.90;;;;;;5014064;28;20018;-64
2022/10/01 04:15:40;;;;;;;0.82;0.50;;;15.20;99.90;;;;;;5013185;28;20017;-64
2022/10/01 04:18:06;;;;;;;0.88;0.30;;;15.30;99.90;;;;;;5013508;28;20024;-63
2022/10/01 04:20:36;;;;;;;0.52;0.30;;;15.30;99.90;;;;;;5013397;28;20030;-64
2022/10/01 04:23:03;;;;;;;1.10;0.40;;;15.30;99.90;;;;;;5013239;28;20034;-63
2022/10/01 04:25:29;;;;;;;1.10;0.40;;;15.20;99.90;;;;;;5013368;28;20034;-64
2022/10/01 04:28:00;;;;;;;1.10;0.35;;;15.30;99.90;;;;;;5013226;28;20026;-64
2022/10/01 04:30:29;;;;;;;2.00;0.55;;;15.30;99.90;;;;;;5013180;28;20059;-64
2022/10/01 04:32:55;;;;;;;1.85;0.22;;;15.30;99.90;;;;;;5013367;28;20461;-63
2022/10/01 04:35:21;;;;;;;2.83;0.82;;;15.30;99.90;;;;;;5013344;28;20092;-63
2022/10/01 04:37:48;;;;;;;1.20;0.40;;;15.30;99.90;;;;;;5013163;28;20101;-63
2022/10/01 04:40:14;;;;;;;0.80;0.30;;;15.30;99.90;;;;;;5013270;28;20479;-64
2022/10/01 04:42:41;;;;;;;1.55;0.20;;;15.30;99.90;;;;;;5012822;28;20072;-64
2022/10/01 04:45:08;;;;;;;1.13;0.40;;;15.30;99.90;;;;;;5013190;28;20489;-64
2022/10/01 04:47:34;;;;;;;1.70;0.50;;;15.30;99.90;;;;;;5013272;28;20031;-65
2022/10/01 04:49:59;;;;;;;1.73;0.22;;;15.30;99.90;;;;;;5013090;28;20386;-64
2022/10/01 04:52:25;;;;;;;1.83;0.60;;;15.30;99.90;;;;;;5013041;28;20479;-64
2022/10/01 04:54:51;;;;;;;1.52;0.52;;;15.30;99.90;;;;;;5012981;28;20026;-64
2022/10/01 04:57:19;;;;;;;1.05;0.30;;;15.30;99.90;;;;;;5012526;28;20109;-64
2022/10/01 04:59:45;;;;;;;1.17;0.15;;;15.30;99.90;;;;;;5013453;28;20080;-64
2022/10/01 05:02:10;;;;;;;3.00;0.65;;;15.30;99.90;;;;;;5013939;28;20014;-64
2022/10/01 05:04:36;;;;;;;1.88;0.80;;;15.30;99.90;;;;;;5013307;28;20034;-64
2022/10/01 05:07:01;;;;;;;1.38;0.60;;;15.30;99.90;;;;;;5011522;28;20034;-64
2022/10/01 05:09:27;;;;;;;1.73;0.60;;;15.30;99.90;;;;;;5012237;28;20058;-64
2022/10/01 05:11:53;;;;;;;2.90;0.50;;;15.30;99.90;;;;;;5027117;28;20054;-63
2022/10/01 05:14:20;;;;;;;4.65;0.88;;;15.30;99.90;;;;;;5015968;28;20103;-63
2022/10/01 05:16:45;;;;;;;6.00;0.70;;;15.30;99.90;;;;;;5016971;28;20026;-63
2022/10/01 05:19:11;;;;;;;3.03;1.02;;;15.30;99.90;;;;;;5016757;28;20024;-64
2022/10/01 05:21:37;;;;;;;3.00;0.60;;;15.30;99.90;;;;;;5016717;28;20220;-63
2022/10/01 05:24:02;;;;;;;0.85;0.30;;;15.30;99.90;;;;;;5016454;28;20026;-63
2022/10/01 05:26:30;;;;;;;2.50;0.73;;;15.30;99.90;;;;;;5016381;28;20440;-63
2022/10/01 05:28:58;;;;;;;2.58;0.90;;;15.30;99.90;;;;;;5016494;28;20382;-63
2022/10/01 05:31:23;;;;;;;3.00;0.93;;;15.30;99.90;;;;;;5016484;28;20467;-68
2022/10/01 05:33:49;;;;;;;4.05;1.17;;;15.30;99.90;;;;;;5019250;28;20048;-63
2022/10/01 05:36:14;;;;;;;3.63;1.00;;;15.30;99.90;;;;;;5029310;28;20029;-62
2022/10/01 05:38:41;;;;;;;2.20;0.80;;;15.30;99.90;;;;;;5035304;28;20060;-62
2022/10/01 05:41:06;;;;;;;5.85;1.20;;;15.30;99.90;;;;;;5045968;28;20095;-63
2022/10/01 05:43:32;;;;;;;3.70;0.95;;;15.30;99.90;;;;;;5037576;28;20021;-63
2022/10/01 05:46:06;;;;;;;2.55;0.77;;;15.30;99.90;;;;;;5035635;28;20037;-62
2022/10/01 05:48:35;;;;;;;2.38;0.82;;;15.40;99.90;;;;;;5035359;28;20026;-63
2022/10/01 05:51:06;;;;;;;3.50;1.00;;;15.30;99.90;;;;;;5035089;28;20105;-63
2022/10/01 05:53:38;;;;;;;2.88;1.25;;;15.30;99.90;;;;;;5039113;28;20013;-63
2022/10/01 05:56:05;;;;;;;3.75;1.20;;;15.30;99.90;;;;;;5035154;28;20033;-63
2022/10/01 05:58:31;;;;;;;4.95;1.40;;;15.30;99.90;;;;;;5034449;28;20071;-63
2022/10/01 06:00:57;;;;;;;4.50;1.23;;;15.40;99.90;;;;;;5035794;28;20022;-63
2022/10/01 06:03:24;;;;;;;6.53;1.13;;;15.40;99.90;;;;;;5035278;28;20061;-63
2022/10/01 06:05:52;;;;;;;6.82;1.95;;;15.40;99.90;;;;;;5040588;28;20044;-63
2022/10/01 06:08:18;;;;;;;4.72;1.77;;;15.30;99.90;;;;;;5036679;28;20394;-63
2022/10/01 06:10:45;;;;;;;5.28;1.60;;;15.40;99.90;;;;;;5035727;28;20034;-63
2022/10/01 06:13:16;;;;;;;3.63;1.42;;;15.30;99.90;;;;;;5035207;28;20029;-64
2022/10/01 06:15:43;;;;;;;4.75;1.80;;;15.40;99.90;;;;;;5033801;28;20034;-65
2022/10/01 06:18:11;;;;;;;4.22;1.40;;;15.40;99.90;;;;;;5034448;28;20108;-63
2022/10/01 06:20:37;;;;;;;3.83;1.60;;;15.40;99.90;;;;;;5035321;28;20029;-67
2022/10/01 06:23:06;;;;;;;8.15;1.95;;;15.40;99.90;;;;;;5041838;28;20038;-64
2022/10/01 06:25:33;;;;;;;4.20;1.35;;;15.40;99.90;;;;;;5032144;28;20037;-64
2022/10/01 06:28:00;;;;;;;8.20;2.05;;;15.40;99.90;;;;;;5034908;28;20025;-63
2022/10/01 06:30:30;;;;;;;6.05;2.10;;;15.40;99.90;;;;;;5043028;28;20080;-63
2022/10/01 06:33:11;;;;;;;3.15;1.33;;;15.40;99.90;;;;;;5025014;28;20561;-63
2022/10/01 06:35:50;;;;;;;7.32;2.35;;;15.40;99.90;;;;;;5034593;28;20029;-63
2022/10/01 06:38:18;;;;;;;5.65;1.52;;;15.40;99.90;;;;;;5035005;28;20018;-64
2022/10/01 06:40:50;;;;;;;5.45;1.52;;;15.40;99.90;;;;;;5034168;28;20056;-65
2022/10/01 06:43:15;;;;;;;6.43;1.20;;;15.40;99.90;;;;;;5034699;28;20095;-64
2022/10/01 06:45:41;;;;;;;5.10;1.23;;;15.40;99.90;;;;;;5041221;28;21937;-64
2022/10/01 06:48:12;;;;;;;7.20;2.55;;;15.50;99.90;;;;;;5034417;28;20025;-65
2022/10/01 06:50:38;;;;;;;6.97;2.35;;;15.50;99.90;;;;;;5035295;28;20049;-64
2022/10/01 06:53:04;;;;;;;5.38;2.17;;;15.50;99.90;;;;;;5038741;28;20506;-63
2022/10/01 06:55:32;;;;;;;8.00;2.28;;;15.50;99.90;;;;;;5034370;28;20387;-63
2022/10/01 06:57:59;;;;;;;9.65;2.83;;;15.50;99.90;;;;;;5043101;28;20029;-63
2022/10/01 07:00:27;;;;;;;7.00;2.03;;;15.50;99.90;;;;;;5032311;28;20107;-63
2022/10/01 07:02:54;;;;;;;7.03;2.88;;;15.50;99.90;;;;;;5033656;28;20382;-63
2022/10/01 07:05:20;;;;;;;6.90;2.20;;;15.50;99.90;;;;;;5037989;28;20041;-63
2022/10/01 07:07:47;;;;;;;6.40;2.97;;;15.60;99.90;;;;;;5044222;28;20036;-63
2022/10/01 07:10:14;;;;;;;9.90;2.95;;;15.60;99.90;;;;;;5033053;28;20029;-63
2022/10/01 07:12:39;;;;;;;7.53;2.45;;;15.60;99.90;;;;;;5033728;28;20028;-63
2022/10/01 07:15:07;;;;;;;7.45;2.13;;;15.60;99.90;;;;;;5031806;28;20034;-64
2022/10/01 07:17:33;;;;;;;6.03;1.65;;;15.70;99.90;;;;;;5031991;28;20022;-63
2022/10/01 07:20:00;;;;;;;7.18;2.67;;;15.70;99.90;;;;;;5035838;28;20036;-63
2022/10/01 07:22:26;;;;;;;8.48;1.73;;;15.70;99.90;;;;;;5033553;28;20025;-63
2022/10/01 07:24:52;;;;;;;4.28;1.30;;;15.70;99.90;;;;;;5041013;28;20052;-62
2022/10/01 07:27:18;;;;;;;6.90;1.73;;;15.70;99.90;;;;;;5032630;28;20470;-62
2022/10/01 07:29:44;;;;;;;5.30;1.40;;;15.80;99.90;;;;;;5033691;28;20409;-62
2022/10/01 07:32:10;;;;;;;10.45;2.45;;;15.80;99.90;;;;;;5033089;28;20120;-63
2022/10/01 07:34:40;;;;;;;9.88;2.22;;;15.80;99.90;;;;;;5032924;28;20025;-62
2022/10/01 07:37:07;;;;;;;9.35;2.00;;;15.80;99.90;;;;;;5019073;28;20430;-63
2022/10/01 07:39:33;;;;;;;10.10;2.00;;;15.80;99.90;;;;;;5033443;28;20100;-64
2022/10/01 07:41:59;;;;;;;10.77;2.33;;;15.90;99.90;;;;;;5034829;28;20060;-64
2022/10/01 07:44:28;;;;;;;7.07;2.83;;;15.90;99.90;;;;;;5052698;28;20057;-62
2022/10/01 07:46:54;;;;;;;10.60;3.42;;;15.90;99.90;;;;;;5053095;28;20528;-63
2022/10/01 07:49:20;;;;;;;12.73;2.58;;;16.00;99.90;;;;;;5053359;28;20013;-63
2022/10/01 07:51:47;;;;;;;10.15;2.53;;;16.00;99.90;;;;;;5038782;28;20079;-63
2022/10/01 07:54:13;;;;;;;10.27;2.22;;;16.00;99.90;;;;;;5033239;28;20113;-62
2022/10/01 07:56:38;;;;;;;6.63;1.60;;;16.00;99.90;;;;;;5033082;28;20057;-62
2022/10/01 07:59:04;;;;;;;11.25;3.17;;;16.00;99.90;;;;;;5038380;28;20029;-62
2022/10/01 08:01:33;;;;;;;11.07;2.53;;;16.10;99.90;;;;;;5027759;28;20443;-62
2022/10/01 08:03:58;;;;;;;10.75;2.10;;;16.10;99.90;;;;;;5038816;28;20052;-62
2022/10/01 08:06:24;;;;;;;8.63;2.10;;;16.10;99.90;;;;;;5026025;28;20326;-64
2022/10/01 08:08:50;;;;;;;6.88;1.98;;;16.10;99.90;;;;;;5034749;28;20071;-63
2022/10/01 08:11:17;;;;;;;8.18;2.30;;;16.20;99.90;;;;;;5031479;28;20026;-63
2022/10/01 08:13:45;;;;;;;8.80;1.67;;;16.20;99.90;;;;;;5030369;28;20056;-62
2022/10/01 08:16:11;;;;;;;6.38;1.80;;;16.20;99.90;;;;;;5035212;28;20067;-63
2022/10/01 08:18:39;;;;;;;9.52;1.23;;;16.20;99.90;;;;;;5029182;28;20380;-65
2022/10/01 08:21:05;;;;;;;8.27;1.35;;;16.30;99.90;;;;;;5027339;28;20378;-63
2022/10/01 08:23:32;;;;;;;6.68;1.92;;;16.40;99.90;;;;;;5029610;28;20474;-65
2022/10/01 08:26:00;;;;;;;7.18;1.48;;;16.40;99.90;;;;;;5038494;28;20123;-63
2022/10/01 08:28:26;;;;;;;10.60;1.95;;;16.50;99.90;;;;;;5041784;28;20067;-63
2022/10/01 08:30:51;;;;;;;12.38;1.63;;;16.50;99.90;;;;;;5039436;28;20471;-63
2022/10/01 08:33:17;;;;;;;6.80;1.50;;;16.50;99.90;;;;;;5040942;28;20030;-63
2022/10/01 08:35:43;;;;;;;7.65;1.75;;;16.50;99.90;;;;;;5023726;28;20068;-66
2022/10/01 08:38:09;;;;;;;8.05;1.80;;;16.50;99.90;;;;;;5044580;28;20382;-64
2022/10/01 08:40:46;;;;;;;9.07;2.13;;;16.50;99.90;;;;;;5037801;28;20025;-64
2022/10/01 08:43:35;;;;;;;7.65;1.35;;;16.60;99.90;;;;;;5037597;28;20623;-66
2022/10/01 08:46:13;;;;;;;6.30;1.75;;;16.60;99.90;;;;;;5041655;28;20124;-62
2022/10/01 08:48:39;;;;;;;10.00;2.33;;;16.60;99.90;;;;;;5028872;28;20029;-62
2022/10/01 08:51:10;;;;;;;9.68;3.25;;;16.60;99.90;;;;;;5034567;28;20563;-63
2022/10/01 08:53:45;;;;;;;12.18;2.45;;;16.60;99.90;;;;;;5038087;28;20029;-65
2022/10/01 08:56:29;;;;;;;10.90;2.42;;;16.60;99.90;;;;;;5035795;28;20026;-64
2022/10/01 08:59:02;;;;;;;10.02;2.75;;;16.70;99.90;;;;;;5035991;28;20033;-65
2022/10/01 09:01:28;;;;;;;11.55;2.38;;;16.70;99.90;;;;;;5030648;28;20056;-65
2022/10/01 09:03:54;;;;;;;7.57;2.20;;;16.70;99.90;;;;;;5031936;28;20029;-62
2022/10/01 09:06:25;;;;;;;9.77;2.60;;;16.70;99.90;;;;;;5030602;28;20126;-63
2022/10/01 09:09:03;;;;;;;12.13;2.67;;;16.70;99.90;;;;;;5032426;28;20025;-64
2022/10/01 09:11:46;;;;;;;9.98;2.15;;;16.70;99.90;;;;;;5029438;28;20025;-63
2022/10/01 09:14:46;;;;;;;13.20;2.80;;;16.70;99.90;;;;;;5025549;28;20029;-63
2022/10/01 09:17:22;;;;;;;11.45;2.75;;;16.80;99.90;;;;;;5022718;28;20029;-63
2022/10/01 09:20:09;;;;;;;12.70;2.60;;;16.70;99.90;;;;;;5032661;28;20836;-63
2022/10/01 09:22:50;;;;;;;13.75;2.35;;;16.80;99.90;;;;;;5033324;28;20038;-62
2022/10/01 09:25:18;;;;;;;14.70;2.53;;;16.80;99.90;;;;;;5029393;28;20067;-63
2022/10/01 09:27:45;;;;;;;10.43;2.92;;;16.80;99.90;;;;;;5027970;28;20026;-64
2022/10/01 09:30:20;;;;;;;12.80;2.88;;;16.80;99.90;;;;;;5027093;28;20090;-64
2022/10/01 09:32:46;;;;;;;10.88;2.10;;;16.80;99.90;;;;;;5031100;28;20500;-63
2022/10/01 09:35:39;;;;;;;13.73;2.85;;;16.80;99.90;;;;;;5046463;28;20083;-63
2022/10/01 09:38:21;;;;;;;15.70;3.03;;;16.90;99.90;;;;;;5035013;28;20108;-63
2022/10/01 09:40:55;;;;;;;9.38;2.67;;;16.90;99.90;;;;;;5043490;28;20025;-63
2022/10/01 09:43:23;;;;;;;9.93;2.13;;;16.90;99.90;;;;;;5032007;28;20522;-63
2022/10/01 09:45:50;;;;;;;6.65;2.20;;;16.90;99.90;;;;;;5037429;28;20490;-63
2022/10/01 09:48:18;;;;;;;8.30;2.42;;;17.00;99.90;;;;;;5031098;28;20033;-63
2022/10/01 09:50:53;;;;;;;10.93;2.50;;;16.90;99.90;;;;;;5038401;28;20493;-64
2022/10/01 09:53:23;;;;;;;10.05;2.92;;;17.00;99.90;;;;;;5043620;28;20040;-63
2022/10/01 09:55:57;;;;;;;12.05;2.75;;;17.00;99.90;;;;;;5034497;28;20036;-63
2022/10/01 09:58:27;;;;;;;13.40;2.75;;;17.20;99.90;;;;;;5045199;28;20363;-63
2022/10/01 10:00:54;;;;;;;8.55;1.98;;;17.20;99.90;;;;;;5035287;28;20025;-63
2022/10/01 10:03:26;;;;;;;9.52;2.55;;;17.30;99.90;;;;;;5040091;28;20033;-63
2022/10/01 10:05:52;;;;;;;8.43;2.08;;;17.20;99.50;;;;;;5028587;28;20111;-63
2022/10/01 10:08:35;;;;;;;8.73;2.10;;;17.30;99.90;;;;;;5013594;28;20467;-63
2022/10/01 10:11:08;;;;;;;14.63;2.58;;;17.30;99.90;;;;;;5015009;28;20021;-63
2022/10/01 10:13:38;;;;;;;10.85;2.90;;;17.30;99.90;;;;;;5034141;28;20037;-63
2022/10/01 10:16:20;;;;;;;10.88;2.30;;;17.30;99.90;;;;;;5034015;28;20017;-62
2022/10/01 10:18:51;;;;;;;11.63;2.90;;;17.30;99.80;;;;;;5033003;28;20026;-63
2022/10/01 10:21:20;;;;;;;10.68;2.75;;;17.30;99.80;;;;;;5034733;28;20546;-62
2022/10/01 10:23:49;;;;;;;12.65;2.83;;;17.30;99.60;;;;;;5034478;28;20034;-62
2022/10/01 10:26:21;;;;;;;10.35;2.47;;;17.30;99.50;;;;;;5033838;28;20033;-62
2022/10/01 10:28:46;;;;;;;10.43;2.35;;;17.30;99.30;;;;;;5034120;28;20017;-62
2022/10/01 10:31:20;;;;;;;9.57;2.60;;;17.40;99.10;;;;;;5033792;28;20116;-63
2022/10/01 10:34:04;;;;;;;10.57;2.25;;;17.30;98.80;;;;;;5045431;28;20017;-64
2022/10/01 10:36:33;;;;;;;15.98;3.35;;;17.40;98.60;;;;;;5054716;28;20053;-63
2022/10/01 10:38:59;;;;;;;11.13;2.60;;;17.40;98.40;;;;;;5039976;28;20026;-65
2022/10/01 10:41:28;;;;;;;9.73;2.90;;;17.40;98.20;;;;;;5034073;28;20040;-62
2022/10/01 10:44:02;;;;;;;9.20;2.67;;;17.40;98.10;;;;;;5049972;28;20021;-62
2022/10/01 10:46:37;;;;;;;11.65;2.70;;;17.40;98.00;;;;;;5015088;28;20030;-62
2022/10/01 10:49:06;;;;;;;15.25;3.63;;;17.40;98.20;;;;;;5034399;28;20021;-62
2022/10/01 10:51:47;;;;;;;10.82;2.95;;;17.40;98.50;;;;;;5040140;28;20025;-63
2022/10/01 10:54:30;;;;;;;16.42;4.70;;;17.40;98.80;;;;;;5032539;28;20025;-62
2022/10/01 10:57:02;;;;;;;29.10;7.20;;;17.40;99.80;;;;;;5033793;28;20025;-62
2022/10/01 10:59:32;;;;;;;22.67;6.17;;;17.40;99.90;;;;;;5033246;28;20017;-62
2022/10/01 11:02:00;;;;;;;17.77;5.28;;;17.50;99.90;;;;;;5033734;28;20382;-63
2022/10/01 11:04:37;;;;;;;15.45;4.03;;;17.50;99.90;;;;;;5033477;28;20029;-63
2022/10/01 11:07:03;;;;;;;13.05;4.47;;;17.50;99.90;;;;;;5033241;28;20399;-62
2022/10/01 11:10:00;;;;;;;12.52;3.20;;;17.50;99.90;;;;;;5033791;28;20490;-63
2022/10/01 11:13:05;;;;;;;15.52;4.20;;;17.50;99.90;;;;;;5024463;28;20040;-62
2022/10/01 11:15:36;;;;;;;16.85;4.10;;;17.50;99.90;;;;;;5031871;28;20045;-62
2022/10/01 11:18:29;;;;;;;13.55;3.40;;;17.50;99.90;;;;;;5034175;28;20031;-63
2022/10/01 11:21:29;;;;;;;14.55;4.47;;;17.50;99.90;;;;;;5032147;28;20040;-66
2022/10/01 11:24:00;;;;;;;14.32;4.07;;;17.50;99.90;;;;;;5033572;28;20036;-65
2022/10/01 11:26:49;;;;;;;14.68;4.07;;;17.50;99.90;;;;;;5032025;28;20037;-62
2022/10/01 11:29:42;;;;;;;18.02;3.85;;;17.50;99.90;;;;;;5027344;28;20040;-64
2022/10/01 11:32:25;;;;;;;20.33;5.25;;;17.50;99.90;;;;;;5030044;28;20018;-64
2022/10/01 11:35:03;;;;;;;14.82;3.53;;;17.60;99.90;;;;;;5032927;28;20164;-63
2022/10/01 11:37:40;;;;;;;13.38;3.13;;;17.50;99.90;;;;;;5035452;28;20083;-65
2022/10/01 11:40:27;;;;;;;15.18;3.47;;;17.60;99.90;;;;;;5032670;28;20037;-64
2022/10/01 11:43:01;;;;;;;11.95;3.80;;;17.60;99.70;;;;;;5033038;28;20021;-66
2022/10/01 11:45:33;;;;;;;15.88;3.85;;;17.60;99.90;;;;;;5032311;28;20394;-65
2022/10/01 11:48:09;;;;;;;11.77;3.20;;;17.60;99.90;;;;;;5047112;28;20444;-64
2022/10/01 11:50:41;;;;;;;13.75;3.50;;;17.60;99.60;;;;;;5035127;28;20079;-64
2022/10/01 11:59:28;;;;;;;9.80;2.80;;;17.60;99.70;;;;;;5037540;28;20041;-64
2022/10/01 12:02:44;;;;;;;14.45;3.13;;;17.60;99.70;;;;;;5064379;28;20033;-64
2022/10/01 12:05:20;;;;;;;15.82;3.38;;;17.70;99.30;;;;;;4997279;28;20054;-64
2022/10/01 12:08:26;;;;;;;12.85;2.92;;;17.60;99.10;;;;;;4991729;28;20056;-63
2022/10/01 12:11:10;;;;;;;13.40;3.40;;;17.70;99.10;;;;;;5041176;28;20546;-64
2022/10/01 12:13:46;;;;;;;14.30;3.42;;;17.60;99.00;;;;;;5034125;28;20104;-65
2022/10/01 12:16:27;;;;;;;9.50;2.83;;;17.70;99.00;;;;;;5033510;28;20031;-65
2022/10/01 12:19:02;;;;;;;14.30;2.63;;;17.70;98.30;;;;;;5038641;28;20486;-65
2022/10/01 12:21:32;;;;;;;12.68;3.13;;;17.70;98.10;;;;;;5032520;28;20052;-64
2022/10/01 12:24:06;;;;;;;8.38;2.17;;;17.70;97.90;;;;;;5034929;28;20040;-65
2022/10/01 12:26:48;;;;;;;9.50;2.67;;;17.70;98.00;;;;;;5044719;28;20049;-64
2022/10/01 12:29:20;;;;;;;11.05;2.83;;;17.70;97.80;;;;;;5039076;28;20458;-65
2022/10/01 12:32:27;;;;;;;10.55;3.00;;;17.70;97.70;;;;;;5042560;28;20487;-65
2022/10/01 12:35:27;;;;;;;10.57;2.45;;;17.70;97.60;;;;;;5028791;28;20037;-65
2022/10/01 12:37:59;;;;;;;9.48;2.33;;;17.80;97.70;;;;;;5034784;28;20041;-65
2022/10/01 12:40:39;;;;;;;8.65;2.08;;;17.80;97.80;;;;;;5039124;28;20502;-65
2022/10/01 12:43:13;;;;;;;10.60;2.15;;;17.80;97.80;;;;;;5037576;28;20037;-63
2022/10/01 12:45:58;;;;;;;9.43;2.00;;;17.70;97.70;;;;;;5025596;28;20033;-64
2022/10/01 12:48:55;;;;;;;8.35;1.90;;;17.80;97.60;;;;;;5031641;28;20144;-63
2022/10/01 12:51:27;;;;;;;11.55;2.63;;;17.80;97.60;;;;;;5030195;28;20025;-64
2022/10/01 12:53:53;;;;;;;11.60;2.20;;;17.80;97.60;;;;;;5034473;28;20401;-64
2022/10/01 12:56:35;;;;;;;13.43;2.55;;;17.90;97.00;;;;;;5027209;28;20474;-64
2022/10/01 12:59:45;;;;;;;12.73;2.40;;;17.90;97.00;;;;;;5031238;28;20474;-64
2022/10/01 13:02:30;;;;;;;8.85;2.50;;;17.90;97.30;;;;;;5038571;28;20482;-65
2022/10/01 13:05:05;;;;;;;13.20;2.40;;;17.90;97.20;;;;;;5036978;28;20080;-64
2022/10/01 13:07:46;;;;;;;9.95;2.50;;;17.90;97.00;;;;;;5026756;28;20026;-65
2022/10/01 13:10:37;;;;;;;12.48;2.95;;;18.00;97.10;;;;;;5032961;28;20111;-65